createdAt,value
2018-04-02T00:01:28.221Z,26.50
2018-04-02T00:02:28.151Z,27.10
2018-04-02T00:04:20.875Z,26.50
2018-04-02T00:05:20.752Z,28.00
2018-04-02T00:07:13.475Z,26.70
2018-04-02T00:08:13.414Z,26.70
2018-04-02T00:10:06.178Z,26.60
2018-04-02T00:11:06.031Z,27.40
2018-04-02T00:12:58.780Z,26.10
2018-04-02T00:13:58.669Z,27.00
2018-04-02T00:15:51.433Z,26.30
2018-04-02T00:16:51.325Z,26.10
2018-04-02T00:18:44.107Z,25.70
2018-04-02T00:19:43.957Z,26.20
2018-04-02T00:21:36.724Z,25.80
2018-04-02T00:22:36.632Z,26.40
2018-04-02T00:24:29.476Z,25.60
2018-04-02T00:25:29.364Z,25.50
2018-04-02T00:27:22.107Z,25.80
2018-04-02T00:28:22.000Z,25.50
2018-04-02T00:30:14.864Z,25.90
2018-04-02T00:31:14.748Z,26.60
2018-04-02T00:33:07.527Z,25.20
2018-04-02T00:34:07.407Z,25.50
2018-04-02T00:36:00.294Z,25.80
2018-04-02T00:37:00.152Z,25.00
2018-04-02T00:38:52.901Z,25.50
2018-04-02T00:39:52.798Z,25.30
2018-04-02T00:41:46.220Z,25.00
2018-04-02T00:42:45.605Z,25.20
2018-04-02T00:44:38.413Z,25.80
2018-04-02T00:45:38.324Z,25.00
2018-04-02T00:47:31.385Z,25.10
2018-04-02T00:48:31.271Z,24.60
2018-04-02T00:50:24.102Z,24.60
2018-04-02T00:51:23.998Z,25.20
2018-04-02T00:53:17.354Z,25.40
2018-04-02T00:54:16.964Z,25.20
2018-04-02T00:56:10.829Z,25.10
2018-04-02T00:57:10.744Z,25.40
2018-04-02T00:59:03.839Z,25.30
2018-04-02T01:00:03.494Z,25.30
2018-04-02T01:01:56.362Z,25.50
2018-04-02T01:02:56.232Z,26.30
2018-04-02T01:04:49.090Z,25.10
2018-04-02T01:05:48.980Z,25.50
2018-04-02T01:07:41.827Z,25.90
2018-04-02T01:08:41.738Z,25.80
2018-04-02T01:10:34.620Z,25.00
2018-04-02T01:11:34.509Z,25.50
2018-04-02T01:13:27.364Z,25.20
2018-04-02T01:14:27.241Z,24.30
2018-04-02T01:16:20.113Z,24.60
2018-04-02T01:17:19.981Z,24.60
2018-04-02T01:19:12.838Z,24.80
2018-04-02T01:20:12.719Z,24.90
2018-04-02T01:22:05.574Z,24.50
2018-04-02T01:23:05.474Z,24.20
2018-04-02T01:24:58.355Z,24.40
2018-04-02T01:25:58.238Z,23.70
2018-04-02T01:27:51.083Z,24.80
2018-04-02T01:28:50.979Z,24.90
2018-04-02T01:30:43.861Z,24.00
2018-04-02T01:31:43.715Z,24.80
2018-04-02T01:33:36.575Z,26.00
2018-04-02T01:34:36.492Z,25.40
2018-04-02T01:36:29.354Z,25.00
2018-04-02T01:37:29.275Z,25.60
2018-04-02T01:39:22.079Z,24.70
2018-04-02T01:40:21.977Z,25.50
2018-04-02T01:42:14.862Z,25.20
2018-04-02T01:43:14.759Z,25.20
2018-04-02T01:45:07.581Z,25.00
2018-04-02T01:46:07.474Z,24.80
2018-04-02T01:48:00.776Z,25.70
2018-04-02T01:49:00.624Z,24.90
2018-04-02T01:50:53.492Z,25.20
2018-04-02T01:51:53.440Z,25.80
2018-04-02T01:53:46.355Z,25.80
2018-04-02T01:54:46.227Z,24.50
2018-04-02T01:56:39.081Z,24.50
2018-04-02T01:57:38.983Z,25.20
2018-04-02T01:59:31.835Z,26.00
2018-04-02T02:00:31.738Z,25.50
2018-04-02T02:02:24.592Z,26.10
2018-04-02T02:03:24.493Z,25.80
2018-04-02T02:05:17.354Z,26.80
2018-04-02T02:06:17.228Z,25.70
2018-04-02T02:08:10.509Z,26.70
2018-04-02T02:09:10.388Z,27.70
2018-04-02T02:11:03.249Z,27.30
2018-04-02T02:12:03.133Z,28.80
2018-04-02T02:13:55.986Z,29.20
2018-04-02T02:14:55.880Z,28.70
2018-04-02T02:16:48.651Z,28.50
2018-04-02T02:17:48.531Z,29.30
2018-04-02T02:19:41.309Z,29.50
2018-04-02T02:20:41.184Z,29.30
2018-04-02T02:22:33.940Z,27.60
2018-04-02T02:23:33.845Z,28.30
2018-04-02T02:25:26.617Z,28.50
2018-04-02T02:26:26.482Z,28.30
2018-04-02T02:28:19.220Z,26.90
2018-04-02T02:29:19.123Z,27.20
2018-04-02T02:31:11.934Z,26.80
2018-04-02T02:32:11.776Z,27.10
2018-04-02T02:34:05.051Z,24.30
2018-04-02T02:35:04.979Z,24.80
2018-04-02T02:36:57.686Z,23.80
2018-04-02T02:37:57.601Z,23.60
2018-04-02T02:39:50.495Z,23.50
2018-04-02T02:40:50.221Z,24.70
2018-04-02T02:42:44.561Z,24.10
2018-04-02T02:43:44.405Z,24.30
2018-04-02T02:45:37.161Z,25.30
2018-04-02T02:46:37.054Z,24.60
2018-04-02T02:48:31.450Z,25.10
2018-04-02T02:49:32.091Z,25.20
2018-04-02T02:51:23.986Z,24.70
2018-04-02T02:52:23.883Z,25.50
2018-04-02T02:54:16.641Z,26.00
2018-04-02T02:55:16.542Z,25.00
2018-04-02T02:57:09.848Z,26.00
2018-04-02T02:58:09.702Z,25.10
2018-04-02T03:00:03.977Z,25.30
2018-04-02T03:01:03.882Z,24.60
2018-04-02T03:02:56.629Z,25.20
2018-04-02T03:03:56.521Z,25.50
2018-04-02T03:05:49.274Z,26.20
2018-04-02T03:06:49.172Z,26.00
2018-04-02T03:08:41.932Z,25.30
2018-04-02T03:09:41.823Z,24.20
2018-04-02T03:11:35.076Z,25.10
2018-04-02T03:12:35.052Z,26.00
2018-04-02T03:14:27.743Z,28.20
2018-04-02T03:15:27.619Z,27.90
2018-04-02T03:17:20.892Z,26.90
2018-04-02T03:18:20.812Z,26.30
2018-04-02T03:20:14.247Z,27.30
2018-04-02T03:21:14.149Z,26.90
2018-04-02T03:23:06.913Z,27.10
2018-04-02T03:24:06.789Z,27.10
2018-04-02T03:25:59.665Z,27.50
2018-04-02T03:26:59.544Z,27.70
2018-04-02T03:28:52.300Z,28.10
2018-04-02T03:29:52.198Z,28.20
2018-04-02T03:31:45.527Z,27.60
2018-04-02T03:32:45.446Z,28.30
2018-04-02T03:34:38.093Z,33.10
2018-04-02T03:35:38.085Z,36.10
2018-04-02T03:37:32.529Z,37.70
2018-04-02T03:38:32.289Z,38.40
2018-04-02T03:40:25.051Z,38.90
2018-04-02T03:41:25.179Z,39.90
2018-04-02T03:43:17.707Z,40.20
2018-04-02T03:44:17.584Z,39.70
2018-04-02T03:46:10.318Z,39.40
2018-04-02T03:47:10.253Z,38.60
2018-04-02T03:49:02.998Z,39.70
2018-04-02T03:50:02.872Z,39.50
2018-04-02T03:51:55.608Z,39.70
2018-04-02T03:52:55.515Z,38.60
2018-04-02T03:54:50.007Z,38.90
2018-04-02T03:55:49.887Z,38.00
2018-04-02T03:57:42.693Z,39.10
2018-04-02T03:58:42.574Z,39.20
2018-04-02T04:00:35.293Z,40.20
2018-04-02T04:01:35.193Z,39.10
2018-04-02T04:03:27.961Z,38.80
2018-04-02T04:04:27.843Z,37.30
2018-04-02T04:06:20.599Z,39.30
2018-04-02T04:07:20.524Z,39.00
2018-04-02T04:09:13.782Z,39.90
2018-04-02T04:10:13.644Z,40.30
2018-04-02T04:12:06.399Z,40.60
2018-04-02T04:13:06.335Z,39.30
2018-04-02T04:14:59.136Z,39.80
2018-04-02T04:15:58.941Z,39.80
2018-04-02T04:17:51.697Z,41.10
2018-04-02T04:18:51.589Z,40.20
2018-04-02T04:20:44.358Z,41.80
2018-04-02T04:21:44.238Z,42.30
2018-04-02T04:23:37.005Z,41.60
2018-04-02T04:24:36.913Z,41.90
2018-04-02T04:26:29.644Z,41.80
2018-04-02T04:27:29.557Z,41.50
2018-04-02T04:29:22.795Z,41.30
2018-04-02T04:30:22.698Z,41.50
2018-04-02T04:32:15.466Z,42.00
2018-04-02T04:33:15.372Z,42.40
2018-04-02T04:35:08.187Z,43.60
2018-04-02T04:36:08.093Z,46.30
2018-04-02T04:38:00.975Z,46.40
2018-04-02T04:39:00.843Z,47.20
2018-04-02T04:40:53.682Z,45.40
2018-04-02T04:41:53.586Z,47.30
2018-04-02T04:43:46.974Z,46.20
2018-04-02T04:44:46.865Z,46.40
2018-04-02T04:46:39.708Z,46.50
2018-04-02T04:47:39.611Z,48.30
2018-04-02T04:49:32.463Z,47.40
2018-04-02T04:50:32.350Z,49.00
2018-04-02T04:52:25.201Z,48.10
2018-04-02T04:53:25.107Z,49.20
2018-04-02T04:55:18.001Z,49.20
2018-04-02T04:56:17.855Z,50.30
2018-04-02T04:58:10.631Z,52.20
2018-04-02T04:59:10.505Z,50.30
2018-04-02T05:01:03.247Z,52.80
2018-04-02T05:02:03.152Z,53.30
2018-04-02T05:03:55.921Z,55.20
2018-04-02T05:04:55.809Z,56.20
2018-04-02T05:06:48.631Z,55.70
2018-04-02T05:07:48.457Z,57.20
2018-04-02T05:09:41.421Z,54.50
2018-04-02T05:10:41.282Z,56.10
2018-04-02T05:12:34.140Z,55.60
2018-04-02T05:13:34.056Z,55.20
2018-04-02T05:15:26.897Z,56.70
2018-04-02T05:16:26.807Z,56.50
2018-04-02T05:18:19.644Z,55.40
2018-04-02T05:19:19.548Z,56.20
2018-04-02T05:21:12.653Z,55.20
2018-04-02T05:22:12.488Z,54.60
2018-04-02T05:24:05.398Z,53.30
2018-04-02T05:25:05.260Z,51.10
2018-04-02T05:26:58.137Z,50.70
2018-04-02T05:27:57.995Z,49.50
2018-04-02T05:29:52.231Z,49.70
2018-04-02T05:30:51.268Z,50.40
2018-04-02T05:32:44.142Z,49.90
2018-04-02T05:33:43.995Z,50.80
2018-04-02T05:35:36.857Z,49.20
2018-04-02T05:36:36.764Z,52.80
2018-04-02T05:38:29.573Z,51.20
2018-04-02T05:39:29.410Z,53.40
2018-04-02T05:41:22.289Z,50.10
2018-04-02T05:42:22.256Z,51.10
2018-04-02T05:44:15.097Z,52.40
2018-04-02T05:45:15.073Z,53.60
2018-04-02T05:47:07.811Z,58.70
2018-04-02T05:48:07.830Z,54.70
2018-04-02T05:50:00.607Z,54.80
2018-04-02T05:51:01.613Z,51.70
2018-04-02T05:52:53.481Z,59.10
2018-04-02T05:53:53.427Z,54.60
2018-04-02T05:55:46.209Z,57.30
2018-04-02T05:56:46.096Z,59.50
2018-04-02T05:58:39.474Z,66.50
2018-04-02T05:59:39.029Z,61.70
2018-04-02T06:01:32.220Z,65.50
2018-04-02T06:02:31.877Z,67.70
2018-04-02T06:04:24.825Z,65.80
2018-04-02T06:05:24.561Z,62.70
2018-04-02T06:07:18.541Z,63.20
2018-04-02T06:08:17.410Z,62.20
2018-04-02T06:10:10.651Z,62.50
2018-04-02T06:11:10.515Z,65.50
2018-04-02T06:19:04.209Z,64.70
2018-04-02T06:19:58.062Z,59.50
2018-04-02T06:23:19.464Z,57.90
2018-04-02T06:24:19.388Z,57.00
2018-04-02T06:26:49.041Z,62.80
2018-04-02T06:27:48.943Z,57.50
2018-04-02T06:29:42.414Z,65.10
2018-04-02T06:30:41.676Z,61.60
2018-04-02T06:32:34.731Z,56.70
2018-04-02T06:33:34.524Z,58.30
2018-04-02T06:35:27.771Z,63.20
2018-04-02T06:36:27.191Z,65.60
2018-04-02T06:38:20.565Z,65.80
2018-04-02T06:39:20.160Z,65.10
2018-04-02T06:41:13.464Z,68.50
2018-04-02T06:42:13.429Z,70.00
2018-04-02T06:44:06.838Z,67.90
2018-04-02T06:45:06.627Z,68.60
2018-04-02T06:46:59.944Z,69.70
2018-04-02T06:47:59.752Z,68.20
2018-04-02T06:49:53.118Z,67.70
2018-04-02T06:50:53.014Z,70.10
2018-04-02T06:52:45.860Z,65.10
2018-04-02T06:53:45.686Z,67.70
2018-04-02T06:55:38.775Z,69.30
2018-04-02T06:56:38.498Z,69.40
2018-04-02T06:58:31.279Z,68.20
2018-04-02T06:59:31.254Z,66.30
2018-04-02T07:01:25.564Z,65.20
2018-04-02T07:02:24.008Z,67.60
2018-04-02T07:04:17.334Z,63.80
2018-04-02T07:05:17.223Z,65.30
2018-04-02T07:07:10.182Z,64.60
2018-04-02T07:08:10.106Z,67.40
2018-04-02T07:10:03.547Z,60.10
2018-04-02T07:11:02.952Z,62.60
2018-04-02T07:12:55.717Z,53.80
2018-04-02T07:13:55.538Z,52.40
2018-04-02T07:15:48.597Z,53.50
2018-04-02T07:16:48.498Z,52.20
2018-04-02T07:18:42.752Z,49.30
2018-04-02T07:19:42.177Z,48.50
2018-04-02T07:21:36.603Z,43.60
2018-04-02T07:22:36.501Z,44.40
2018-04-02T07:24:29.794Z,43.30
2018-04-02T07:25:29.411Z,44.30
2018-04-02T07:27:22.827Z,43.40
2018-04-02T07:28:22.639Z,43.10
2018-04-02T07:30:16.643Z,43.00
2018-04-02T07:31:15.366Z,42.00
2018-04-02T07:33:08.261Z,37.50
2018-04-02T07:34:08.116Z,39.00
2018-04-02T07:36:01.521Z,38.50
2018-04-02T07:37:01.021Z,38.30
2018-04-02T07:38:55.236Z,35.70
2018-04-02T07:39:54.626Z,34.60
2018-04-02T07:41:47.943Z,33.30
2018-04-02T07:42:47.360Z,34.40
2018-04-02T07:44:40.935Z,36.20
2018-04-02T07:45:40.110Z,37.10
2018-04-02T07:47:33.986Z,33.30
2018-04-02T07:48:33.958Z,33.70
2018-04-02T07:50:26.868Z,31.20
2018-04-02T07:51:26.758Z,31.40
2018-04-02T07:53:22.033Z,30.30
2018-04-02T07:54:20.913Z,30.70
2018-04-02T07:56:13.758Z,30.50
2018-04-02T07:57:13.636Z,32.10
2018-04-02T07:59:06.514Z,32.10
2018-04-02T08:00:06.376Z,31.80
2018-04-02T08:01:59.218Z,32.60
2018-04-02T08:02:59.162Z,33.60
2018-04-02T08:04:52.090Z,33.80
2018-04-02T08:05:51.975Z,32.60
2018-04-02T08:07:44.838Z,34.40
2018-04-02T08:08:44.731Z,34.00
2018-04-02T08:10:37.617Z,34.60
2018-04-02T08:11:37.506Z,35.50
2018-04-02T08:13:30.626Z,34.50
2018-04-02T08:14:30.552Z,35.70
2018-04-02T08:16:23.395Z,36.00
2018-04-02T08:17:23.294Z,35.80
2018-04-02T08:19:16.130Z,35.80
2018-04-02T08:20:16.034Z,35.80
2018-04-02T08:22:08.889Z,36.90
2018-04-02T08:23:08.785Z,36.40
2018-04-02T08:25:01.639Z,35.90
2018-04-02T08:26:01.533Z,35.60
2018-04-02T08:27:54.401Z,35.80
2018-04-02T08:28:54.293Z,36.40
2018-04-02T08:30:47.130Z,36.00
2018-04-02T08:31:47.035Z,34.60
2018-04-02T08:33:39.895Z,37.00
2018-04-02T08:34:39.777Z,36.90
2018-04-02T08:36:34.535Z,35.10
2018-04-02T08:37:34.382Z,35.80
2018-04-02T08:39:27.246Z,36.40
2018-04-02T08:40:27.121Z,36.80
2018-04-02T08:42:20.568Z,37.30
2018-04-02T08:43:20.087Z,37.30
2018-04-02T08:45:12.933Z,38.00
2018-04-02T08:46:12.844Z,36.60
2018-04-02T08:48:05.704Z,37.50
2018-04-02T08:49:05.582Z,38.00
2018-04-02T08:50:58.445Z,37.00
2018-04-02T08:51:58.320Z,36.90
2018-04-02T08:53:51.707Z,37.50
2018-04-02T08:54:51.590Z,37.60
2018-04-02T08:56:44.440Z,37.40
2018-04-02T08:57:44.337Z,36.80
2018-04-02T08:59:37.213Z,37.00
2018-04-02T09:00:37.128Z,37.50
2018-04-02T09:02:29.972Z,38.60
2018-04-02T09:03:29.830Z,37.30
2018-04-02T09:05:22.701Z,37.60
2018-04-02T09:06:22.604Z,38.20
2018-04-02T09:08:15.459Z,36.20
2018-04-02T09:09:15.369Z,38.00
2018-04-02T09:11:08.120Z,39.10
2018-04-02T09:12:07.981Z,39.50
2018-04-02T09:14:00.745Z,38.80
2018-04-02T09:15:00.678Z,38.70
2018-04-02T09:16:53.909Z,39.30
2018-04-02T09:17:53.842Z,38.70
2018-04-02T09:19:46.589Z,38.80
2018-04-02T09:20:46.444Z,37.20
2018-04-02T09:22:39.187Z,37.80
2018-04-02T09:23:39.096Z,37.60
2018-04-02T09:25:31.871Z,38.20
2018-04-02T09:26:31.731Z,38.90
2018-04-02T09:28:24.480Z,36.20
2018-04-02T09:29:24.412Z,35.90
2018-04-02T09:31:17.169Z,35.70
2018-04-02T09:32:17.048Z,36.10
2018-04-02T09:34:09.788Z,35.50
2018-04-02T09:35:09.677Z,34.80
2018-04-02T09:37:02.437Z,35.40
2018-04-02T09:38:02.334Z,35.50
2018-04-02T09:39:55.071Z,34.30
2018-04-02T09:40:55.112Z,34.70
2018-04-02T09:42:47.744Z,33.20
2018-04-02T09:43:47.610Z,32.70
2018-04-02T09:45:40.367Z,31.10
2018-04-02T09:46:40.280Z,31.20
2018-04-02T09:48:34.658Z,31.20
2018-04-02T09:49:34.702Z,31.10
2018-04-02T09:51:27.395Z,28.60
2018-04-02T09:52:27.306Z,28.60
2018-04-02T09:54:23.261Z,27.80
2018-04-02T09:55:23.127Z,28.20
2018-04-02T09:59:44.644Z,29.60
2018-04-02T10:00:44.475Z,29.40
2018-04-02T10:02:38.835Z,28.70
2018-04-02T10:03:38.773Z,28.30
2018-04-02T10:05:31.627Z,26.90
2018-04-02T10:06:31.547Z,27.20
2018-04-02T10:08:35.681Z,28.20
2018-04-02T10:09:25.029Z,27.50
2018-04-02T10:11:19.099Z,26.30
2018-04-02T10:12:18.293Z,25.90
2018-04-02T10:14:12.668Z,25.10
2018-04-02T10:17:05.393Z,26.50
2018-04-02T10:18:05.268Z,25.90
2018-04-02T10:19:58.272Z,25.60
2018-04-02T10:20:58.110Z,27.00
2018-04-02T10:22:52.528Z,25.60
2018-04-02T10:23:52.463Z,25.20
2018-04-02T10:25:45.341Z,26.10
2018-04-02T10:26:45.265Z,25.50
2018-04-02T10:28:38.106Z,24.30
2018-04-02T10:29:38.029Z,24.80
2018-04-02T10:31:31.680Z,24.30
2018-04-02T10:32:31.568Z,23.90
2018-04-02T10:34:24.407Z,23.10
2018-04-02T10:35:24.306Z,22.90
2018-04-02T10:37:17.218Z,22.70
2018-04-02T10:38:17.073Z,22.60
2018-04-02T10:40:09.902Z,22.40
2018-04-02T10:41:09.870Z,22.10
2018-04-02T10:43:02.792Z,21.90
2018-04-02T10:44:02.660Z,21.70
2018-04-02T10:45:55.606Z,22.40
2018-04-02T10:46:55.409Z,22.70
2018-04-02T10:48:48.285Z,22.20
2018-04-02T10:49:48.162Z,21.80
2018-04-02T10:51:41.027Z,21.10
2018-04-02T10:52:40.941Z,20.80
2018-04-02T10:54:33.792Z,20.00
2018-04-02T10:55:33.678Z,20.30
2018-04-02T10:57:26.532Z,23.00
2018-04-02T10:58:26.422Z,20.10
2018-04-02T11:00:19.382Z,20.00
2018-04-02T11:01:19.256Z,19.80
2018-04-02T11:03:12.742Z,19.00
2018-04-02T11:04:12.773Z,18.40
2018-04-02T11:06:05.503Z,18.60
2018-04-02T11:07:05.372Z,18.10
2018-04-02T11:08:58.473Z,17.20
2018-04-02T11:09:58.390Z,18.10
2018-04-02T11:11:51.403Z,17.80
2018-04-02T11:12:51.360Z,17.80
2018-04-02T11:14:44.203Z,17.70
2018-04-02T11:15:44.202Z,17.90
2018-04-02T11:17:38.432Z,16.50
2018-04-02T11:18:38.360Z,15.70
2018-04-02T11:20:31.212Z,16.80
2018-04-02T11:21:31.070Z,16.70
2018-04-02T11:23:24.062Z,17.30
2018-04-02T11:24:23.943Z,19.20
2018-04-02T11:26:16.789Z,17.00
2018-04-02T11:27:16.666Z,17.40
2018-04-02T11:29:09.535Z,16.80
2018-04-02T11:30:09.461Z,15.90
2018-04-02T11:32:02.289Z,15.90
2018-04-02T11:33:02.207Z,16.70
2018-04-02T11:34:55.044Z,16.30
2018-04-02T11:35:54.927Z,16.80
2018-04-02T11:37:48.305Z,15.90
2018-04-02T11:38:48.209Z,15.50
2018-04-02T11:40:41.021Z,15.80
2018-04-02T11:41:40.939Z,15.90
2018-04-02T11:43:33.811Z,15.20
2018-04-02T11:44:33.693Z,15.60
2018-04-02T11:46:26.635Z,16.30
2018-04-02T11:47:26.555Z,16.10
2018-04-02T11:49:19.296Z,16.10
2018-04-02T11:50:19.187Z,17.40
2018-04-02T11:52:11.959Z,16.70
2018-04-02T11:53:11.837Z,16.30
2018-04-02T11:55:05.103Z,15.90
2018-04-02T11:56:05.011Z,15.90
2018-04-02T11:58:00.295Z,16.80
2018-04-02T11:59:00.195Z,17.20
2018-04-02T12:00:53.070Z,17.60
2018-04-02T12:01:52.961Z,17.00
2018-04-02T12:03:45.813Z,16.60
2018-04-02T12:04:45.603Z,16.30
2018-04-02T12:06:38.356Z,17.10
2018-04-02T12:07:38.255Z,17.10
2018-04-02T12:09:31.045Z,16.70
2018-04-02T12:10:30.939Z,16.50
2018-04-02T12:12:23.773Z,16.70
2018-04-02T12:13:23.580Z,16.40
2018-04-02T12:15:16.311Z,16.70
2018-04-02T12:16:16.182Z,16.70
2018-04-02T12:18:09.519Z,15.80
2018-04-02T12:19:09.404Z,16.10
2018-04-02T12:21:02.269Z,15.60
2018-04-02T12:22:02.091Z,15.20
2018-04-02T12:23:54.830Z,15.00
2018-04-02T12:24:54.756Z,14.70
2018-04-02T12:26:47.609Z,14.80
2018-04-02T12:27:47.531Z,14.40
2018-04-02T12:29:40.259Z,15.10
2018-04-02T12:30:40.134Z,15.10
2018-04-02T12:32:32.885Z,14.80
2018-04-02T12:33:32.818Z,15.60
2018-04-02T12:35:25.516Z,15.50
2018-04-02T12:36:25.429Z,15.20
2018-04-02T12:38:18.384Z,15.10
2018-04-02T12:39:18.175Z,15.50
2018-04-02T12:41:11.027Z,15.40
2018-04-02T12:42:10.925Z,16.10
2018-04-02T12:44:03.777Z,14.60
2018-04-02T12:45:03.677Z,15.20
2018-04-02T12:46:56.516Z,15.20
2018-04-02T12:47:56.437Z,15.70
2018-04-02T12:49:49.184Z,15.80
2018-04-02T12:50:49.073Z,14.90
2018-04-02T12:52:41.844Z,14.30
2018-04-02T12:53:41.754Z,14.40
2018-04-02T12:55:35.497Z,14.30
2018-04-02T12:56:35.392Z,14.30
2018-04-02T12:58:28.670Z,14.60
2018-04-02T12:59:28.567Z,14.20
2018-04-02T13:01:21.304Z,14.30
2018-04-02T13:02:21.269Z,14.60
2018-04-02T13:04:14.087Z,14.50
2018-04-02T13:05:14.059Z,15.00
2018-04-02T13:07:06.713Z,14.90
2018-04-02T13:08:06.638Z,15.40
2018-04-02T13:09:59.460Z,14.80
2018-04-02T13:10:59.405Z,14.50
2018-04-02T13:12:52.292Z,14.60
2018-04-02T13:13:52.089Z,13.90
2018-04-02T13:15:45.228Z,14.00
2018-04-02T13:16:44.876Z,14.20
2018-04-02T13:18:37.709Z,13.90
2018-04-02T13:19:37.656Z,14.20
2018-04-02T13:21:30.440Z,13.30
2018-04-02T13:22:30.255Z,13.40
2018-04-02T13:24:23.129Z,14.40
2018-04-02T13:25:23.018Z,14.10
2018-04-02T13:27:16.367Z,13.40
2018-04-02T13:28:16.149Z,13.60
2018-04-02T13:30:09.036Z,13.50
2018-04-02T13:31:08.901Z,13.50
2018-04-02T13:33:02.221Z,13.60
2018-04-02T13:34:02.086Z,13.80
2018-04-02T13:35:56.362Z,13.20
2018-04-02T13:36:56.242Z,13.20
2018-04-02T13:38:49.512Z,13.40
2018-04-02T13:39:49.935Z,13.40
2018-04-02T13:41:43.197Z,13.00
2018-04-02T13:42:43.074Z,13.20
2018-04-02T13:44:36.347Z,12.80
2018-04-02T13:45:36.252Z,13.30
2018-04-02T13:47:29.440Z,12.90
2018-04-02T13:48:29.145Z,13.90
2018-04-02T13:50:21.840Z,12.50
2018-04-02T13:51:21.724Z,13.50
2018-04-02T13:53:14.496Z,12.70
2018-04-02T13:54:14.377Z,12.20
2018-04-02T13:56:07.629Z,12.40
2018-04-02T13:57:07.535Z,13.10
2018-04-02T13:59:00.454Z,12.70
2018-04-02T14:00:00.199Z,12.90
2018-04-02T14:01:53.045Z,12.40
2018-04-02T14:02:52.928Z,12.10
2018-04-02T14:04:45.686Z,12.10
2018-04-02T14:05:45.583Z,11.80
2018-04-02T14:07:38.560Z,12.00
2018-04-02T14:08:38.325Z,11.60
2018-04-02T14:10:31.219Z,11.80
2018-04-02T14:11:31.078Z,11.50
2018-04-02T14:13:23.948Z,11.10
2018-04-02T14:14:23.847Z,11.90
2018-04-02T14:16:16.596Z,11.90
2018-04-02T14:17:16.489Z,12.30
2018-04-02T14:19:09.624Z,11.60
2018-04-02T14:20:09.259Z,11.60
2018-04-02T14:22:01.991Z,11.10
2018-04-02T14:23:01.884Z,11.70
2018-04-02T14:24:54.718Z,11.90
2018-04-02T14:25:54.626Z,11.10
2018-04-02T14:27:48.010Z,11.40
2018-04-02T14:28:47.400Z,12.00
2018-04-02T14:30:40.128Z,11.80
2018-04-02T14:31:40.096Z,11.50
2018-04-02T14:33:32.901Z,11.60
2018-04-02T14:34:32.771Z,11.10
2018-04-02T14:36:27.101Z,11.00
2018-04-02T14:37:26.974Z,10.80
2018-04-02T14:39:20.373Z,11.30
2018-04-02T14:40:20.214Z,11.60
2018-04-02T14:42:12.985Z,10.90
2018-04-02T14:43:12.875Z,11.80
2018-04-02T14:45:05.719Z,11.20
2018-04-02T14:46:05.616Z,11.80
2018-04-02T14:47:58.460Z,11.20
2018-04-02T14:48:58.472Z,11.10
2018-04-02T14:50:51.102Z,11.50
2018-04-02T14:51:51.001Z,11.90
2018-04-02T14:53:43.870Z,12.10
2018-04-02T14:54:43.787Z,11.80
2018-04-02T14:56:36.532Z,11.20
2018-04-02T14:57:36.403Z,11.40
2018-04-02T14:59:29.161Z,11.50
2018-04-02T15:00:29.162Z,11.60
2018-04-02T15:02:21.891Z,12.20
2018-04-02T15:03:21.802Z,11.20
2018-04-02T15:05:14.574Z,11.80
2018-04-02T15:06:14.450Z,11.40
2018-04-02T15:08:07.222Z,11.80
2018-04-02T15:09:07.096Z,11.70
2018-04-02T15:10:59.866Z,11.20
2018-04-02T15:11:59.766Z,11.20
2018-04-02T15:13:52.628Z,12.60
2018-04-02T15:14:52.499Z,15.00
2018-04-02T15:16:45.330Z,10.70
2018-04-02T15:17:45.238Z,11.00
2018-04-02T15:19:38.143Z,10.80
2018-04-02T15:20:38.051Z,9.90
2018-04-02T15:22:30.835Z,10.70
2018-04-02T15:23:30.778Z,10.40
2018-04-02T15:25:24.031Z,9.60
2018-04-02T15:26:23.930Z,9.90
2018-04-02T15:28:16.741Z,9.60
2018-04-02T15:29:16.674Z,9.60
2018-04-02T15:31:09.552Z,10.00
2018-04-02T15:32:09.436Z,9.50
2018-04-02T15:34:02.303Z,9.70
2018-04-02T15:35:02.198Z,10.30
2018-04-02T15:37:13.401Z,9.10
2018-04-02T15:38:12.406Z,9.80
2018-04-02T15:40:06.187Z,9.50
2018-04-02T15:41:06.267Z,10.00
2018-04-02T15:42:59.056Z,9.40
2018-04-02T15:43:58.842Z,9.90
2018-04-02T15:45:51.686Z,9.60
2018-04-02T15:46:51.579Z,10.10
2018-04-02T15:48:44.425Z,9.70
2018-04-02T15:49:44.411Z,9.90
2018-04-02T15:51:37.087Z,10.00
2018-04-02T15:52:36.886Z,9.60
2018-04-02T15:54:29.725Z,9.10
2018-04-02T15:55:29.623Z,9.50
2018-04-02T15:57:22.482Z,10.80
2018-04-02T15:58:22.378Z,10.40
2018-04-02T16:00:15.248Z,10.00
2018-04-02T16:01:15.120Z,11.10
2018-04-02T16:03:07.961Z,12.10
2018-04-02T16:04:07.872Z,12.40
2018-04-02T16:06:00.725Z,13.60
2018-04-02T16:07:00.619Z,13.10
2018-04-02T16:08:53.462Z,13.20
2018-04-02T16:09:53.442Z,13.30
2018-04-02T16:11:46.244Z,15.20
2018-04-02T16:12:46.111Z,15.30
2018-04-02T16:14:38.978Z,15.00
2018-04-02T16:15:38.876Z,15.90
2018-04-02T16:17:31.776Z,15.50
2018-04-02T16:18:31.647Z,16.20
2018-04-02T16:20:24.487Z,17.10
2018-04-02T16:21:24.500Z,17.50
2018-04-02T16:23:17.297Z,15.00
2018-04-02T16:24:17.114Z,13.90
2018-04-02T16:26:10.070Z,12.20
2018-04-02T16:27:09.970Z,12.40
2018-04-02T16:29:02.812Z,11.70
2018-04-02T16:30:02.723Z,11.00
2018-04-02T16:31:55.592Z,11.10
2018-04-02T16:32:55.478Z,10.70
2018-04-02T16:34:48.307Z,11.20
2018-04-02T16:35:48.226Z,12.10
2018-04-02T16:37:41.170Z,14.30
2018-04-02T16:38:41.075Z,13.80
2018-04-02T16:40:33.916Z,16.10
2018-04-02T16:41:33.818Z,17.00
2018-04-02T16:43:26.693Z,16.40
2018-04-02T16:44:26.569Z,15.70
2018-04-02T16:46:19.407Z,15.80
2018-04-02T16:47:19.308Z,15.30
2018-04-02T16:49:12.188Z,13.80
2018-04-02T16:50:12.058Z,13.60
2018-04-02T16:52:04.914Z,13.70
2018-04-02T16:53:04.817Z,13.50
2018-04-02T16:54:57.692Z,13.80
2018-04-02T16:55:57.565Z,11.50
2018-04-02T16:57:51.887Z,9.30
2018-04-02T16:58:51.779Z,9.70
2018-04-02T17:00:44.610Z,9.90
2018-04-02T17:01:44.528Z,10.80
2018-04-02T17:03:37.423Z,10.20
2018-04-02T17:04:37.288Z,10.30
2018-04-02T17:06:30.094Z,10.00
2018-04-02T17:07:29.994Z,9.90
2018-04-02T17:10:57.495Z,10.60
2018-04-02T17:11:51.378Z,14.60
2018-04-02T17:19:10.474Z,16.80
2018-04-02T17:19:48.940Z,20.80
2018-04-02T17:22:14.146Z,19.60
2018-04-02T17:23:14.040Z,18.80
2018-04-02T17:25:14.505Z,20.10
2018-04-02T17:26:14.359Z,20.90
2018-04-02T17:28:07.264Z,22.10
2018-04-02T17:29:07.100Z,21.40
2018-04-02T17:31:00.360Z,20.70
2018-04-02T17:32:00.259Z,20.70
2018-04-02T17:33:54.133Z,20.20
2018-04-02T17:34:54.036Z,21.00
2018-04-02T17:36:46.906Z,20.70
2018-04-02T17:37:46.789Z,20.80
2018-04-02T17:39:39.653Z,20.30
2018-04-02T17:40:39.592Z,19.90
2018-04-02T17:42:32.379Z,21.10
2018-04-02T17:43:32.281Z,23.50
2018-04-02T17:45:26.592Z,18.70
2018-04-02T17:46:26.465Z,18.10
2018-04-02T17:48:19.307Z,18.80
2018-04-02T17:49:19.212Z,18.40
2018-04-02T17:51:12.072Z,17.10
2018-04-02T17:52:11.977Z,16.10
2018-04-02T17:54:05.360Z,16.50
2018-04-02T17:55:05.244Z,18.00
2018-04-02T17:56:59.601Z,18.40
2018-04-02T17:57:59.511Z,17.70
2018-04-02T17:59:52.403Z,13.50
2018-04-02T18:00:52.258Z,13.10
2018-04-02T18:02:45.104Z,14.10
2018-04-02T18:03:45.060Z,15.30
2018-04-02T18:05:37.876Z,13.90
2018-04-02T18:06:37.764Z,13.30
2018-04-02T18:08:31.155Z,13.20
2018-04-02T18:09:31.032Z,13.10
2018-04-02T18:11:23.891Z,15.30
2018-04-02T18:12:23.772Z,15.70
2018-04-02T18:14:16.679Z,16.90
2018-04-02T18:15:16.516Z,17.30
2018-04-02T18:17:09.412Z,14.60
2018-04-02T18:18:09.288Z,15.60
2018-04-02T18:20:02.118Z,10.70
2018-04-02T18:21:02.020Z,11.70
2018-04-02T18:22:55.485Z,18.40
2018-04-02T18:23:55.491Z,16.70
2018-04-02T18:25:48.236Z,16.70
2018-04-02T18:26:48.146Z,13.60
2018-04-02T18:28:41.651Z,12.30
2018-04-02T18:29:41.386Z,12.60
2018-04-02T18:31:34.244Z,11.80
2018-04-02T18:32:34.139Z,11.10
2018-04-02T18:34:27.029Z,11.70
2018-04-02T18:35:26.900Z,11.80
2018-04-02T18:37:19.765Z,11.40
2018-04-02T18:38:19.693Z,11.20
2018-04-02T18:40:13.029Z,11.30
2018-04-02T18:41:12.382Z,11.30
2018-04-02T18:43:05.248Z,11.10
2018-04-02T18:44:05.157Z,11.60
2018-04-02T18:45:58.524Z,10.80
2018-04-02T18:46:58.415Z,10.80
2018-04-02T18:48:51.580Z,10.80
2018-04-02T18:49:51.462Z,10.70
2018-04-02T18:51:44.330Z,11.70
2018-04-02T18:52:44.228Z,12.30
2018-04-02T18:54:37.118Z,12.50